^^
Your Local Weather - Clay, NY Station Historical Data
Daily Summary for August 29, 2017 Units:  English    Metric   Both
« Previous Day
Next Day »
Daily Weekly Monthly Yearly Custom
  High: Low: Average:
Temperature: 71.2 °F 52.1 °F 60.1 °F
Dew Point: 57.3 °F 47.0 °F 51.1 °F
Humidity: 93% 46% 74%
Wind Speed: 5.0mph 0.0mph 1.2mph
Wind Gust: 11.0mph - -
Wind- - ESE
Pressure: 30.21 in 30.03 in -
Precipitation: 0.00 in    
Historical Graphs
 
 
Tabular Data for August 29, 2017
Time Temperature Dew Point Pressure Wind Wind Speed Wind Gust Humidity Rainfall Rate (Hourly) solar
00:02 57.1 °F 53.9 °F 30.20 in Calm     89% 0.00 in 0 W/m2
00:08 57.0 °F 53.8 °F 30.20 in Calm     89% 0.00 in 0 W/m2
00:14 57.0 °F 53.5 °F 30.20 in Calm     88% 0.00 in 0 W/m2
00:20 57.0 °F 53.5 °F 30.20 in Calm     88% 0.00 in 0 W/m2
00:26 56.8 °F 53.3 °F 30.20 in Calm     88% 0.00 in 0 W/m2
00:32 56.7 °F 53.2 °F 30.20 in Calm     88% 0.00 in 0 W/m2
00:38 56.5 °F 53.0 °F 30.20 in Calm     88% 0.00 in 0 W/m2
00:42 56.4 °F 52.9 °F 30.20 in Calm     88% 0.00 in 0 W/m2
00:48 56.1 °F 52.6 °F 30.20 in Calm     88% 0.00 in 0 W/m2
00:54 56.0 °F 52.8 °F 30.20 in Calm     89% 0.00 in 0 W/m2
01:00 55.7 °F 52.5 °F 30.20 in Calm     89% 0.00 in 0 W/m2
01:06 55.6 °F 52.4 °F 30.20 in Calm     89% 0.00 in 0 W/m2
01:12 55.6 °F 52.4 °F 30.20 in Calm     89% 0.00 in 0 W/m2
01:18 55.4 °F 52.5 °F 30.20 in Calm     90% 0.00 in 0 W/m2
01:24 55.2 °F 52.3 °F 30.20 in Calm     90% 0.00 in 0 W/m2
01:30 55.0 °F 52.1 °F 30.20 in Calm     90% 0.00 in 0 W/m2
01:36 54.8 °F 51.9 °F 30.20 in Calm     90% 0.00 in 0 W/m2
01:42 54.7 °F 51.8 °F 30.20 in Calm     90% 0.00 in 0 W/m2
01:48 54.6 °F 52.0 °F 30.20 in Calm   1.0 mph 91% 0.00 in 0 W/m2
01:54 54.6 °F 52.0 °F 30.20 in Calm   1.0 mph 91% 0.00 in 0 W/m2
02:00 54.5 °F 51.9 °F 30.20 in Calm     91% 0.00 in 0 W/m2
02:06 54.4 °F 51.8 °F 30.19 in Calm   2.0 mph 91% 0.00 in 0 W/m2
02:12 54.2 °F 51.6 °F 30.19 in Calm     91% 0.00 in 0 W/m2
02:18 54.0 °F 51.4 °F 30.19 in Calm   2.0 mph 91% 0.00 in 0 W/m2
02:24 54.0 °F 51.7 °F 30.19 in SE 1.0 mph 1.0 mph 92% 0.00 in 0 W/m2
02:30 53.9 °F 51.6 °F 30.19 in Calm     92% 0.00 in 0 W/m2
02:36 53.9 °F 51.3 °F 30.19 in Calm     91% 0.00 in 0 W/m2
02:42 53.8 °F 51.5 °F 30.19 in Calm     92% 0.00 in 0 W/m2
02:48 53.7 °F 51.4 °F 30.19 in Calm     92% 0.00 in 0 W/m2
02:54 53.7 °F 51.4 °F 30.19 in Calm   1.0 mph 92% 0.00 in 0 W/m2
03:00 53.6 °F 51.3 °F 30.19 in Calm     92% 0.00 in 0 W/m2
03:06 53.5 °F 51.2 °F 30.20 in Calm     92% 0.00 in 0 W/m2
03:12 53.2 °F 50.9 °F 30.20 in Calm     92% 0.00 in 0 W/m2
03:18 53.0 °F 50.7 °F 30.20 in Calm     92% 0.00 in 0 W/m2
03:24 52.8 °F 50.5 °F 30.20 in Calm     92% 0.00 in 0 W/m2
03:30 52.9 °F 50.6 °F 30.20 in Calm     92% 0.00 in 0 W/m2
03:36 53.0 °F 50.7 °F 30.20 in Calm   1.0 mph 92% 0.00 in 0 W/m2
03:42 53.1 °F 50.8 °F 30.20 in ENE 1.0 mph 2.0 mph 92% 0.00 in 0 W/m2
03:48 53.1 °F 50.8 °F 30.20 in Calm   2.0 mph 92% 0.00 in 0 W/m2
03:54 53.1 °F 50.8 °F 30.19 in Calm   2.0 mph 92% 0.00 in 0 W/m2
04:00 53.0 °F 50.7 °F 30.19 in Calm     92% 0.00 in 0 W/m2
04:06 52.9 °F 50.6 °F 30.19 in Calm     92% 0.00 in 0 W/m2
04:12 52.9 °F 50.6 °F 30.19 in Calm     92% 0.00 in 0 W/m2
04:18 52.9 °F 50.6 °F 30.19 in Calm     92% 0.00 in 0 W/m2
04:24 52.9 °F 50.6 °F 30.20 in Calm     92% 0.00 in 0 W/m2
04:30 52.8 °F 50.5 °F 30.20 in Calm     92% 0.00 in 0 W/m2
04:36 52.8 °F 50.5 °F 30.20 in Calm     92% 0.00 in 0 W/m2
04:42 52.8 °F 50.5 °F 30.20 in Calm   3.0 mph 92% 0.00 in 0 W/m2
04:48 52.8 °F 50.5 °F 30.20 in Calm   3.0 mph 92% 0.00 in 0 W/m2
04:54 53.0 °F 51.0 °F 30.20 in Calm     93% 0.00 in 0 W/m2
05:00 53.1 °F 51.1 °F 30.19 in Calm     93% 0.00 in 0 W/m2
05:06 53.1 °F 51.1 °F 30.20 in Calm     93% 0.00 in 0 W/m2
05:12 53.0 °F 51.0 °F 30.20 in Calm     93% 0.00 in 0 W/m2
05:18 53.1 °F 51.1 °F 30.20 in Calm   1.0 mph 93% 0.00 in 0 W/m2
05:24 53.2 °F 51.2 °F 30.20 in Calm     93% 0.00 in 0 W/m2
05:30 53.2 °F 50.9 °F 30.20 in Calm     92% 0.00 in 0 W/m2
05:36 53.1 °F 50.8 °F 30.20 in Calm   1.0 mph 92% 0.00 in 0 W/m2
05:42 53.1 °F 50.8 °F 30.20 in Calm     92% 0.00 in 0 W/m2
05:48 53.1 °F 50.8 °F 30.20 in Calm     92% 0.00 in 0 W/m2
05:54 53.0 °F 50.7 °F 30.20 in Calm     92% 0.00 in 0 W/m2
06:00 52.8 °F 50.5 °F 30.20 in Calm     92% 0.00 in 0 W/m2
06:06 52.6 °F 50.3 °F 30.20 in Calm     92% 0.00 in 0 W/m2
06:12 52.3 °F 50.0 °F 30.20 in Calm     92% 0.00 in 0 W/m2
06:18 52.2 °F 49.9 °F 30.21 in Calm     92% 0.00 in 0 W/m2
06:24 52.1 °F 49.8 °F 30.21 in Calm     92% 0.00 in 0 W/m2
06:30 52.1 °F 49.8 °F 30.21 in Calm     92% 0.00 in 0 W/m2
06:36 52.1 °F 49.8 °F 30.21 in Calm     92% 0.00 in 5 W/m2
06:42 52.2 °F 49.9 °F 30.21 in Calm     92% 0.00 in 9 W/m2
06:48 52.2 °F 49.9 °F 30.21 in Calm     92% 0.00 in 18 W/m2
06:54 52.2 °F 49.9 °F 30.21 in Calm     92% 0.00 in 23 W/m2
07:00 52.6 °F 50.3 °F 30.21 in Calm     92% 0.00 in 30 W/m2
07:06 52.8 °F 50.5 °F 30.21 in Calm     92% 0.00 in 42 W/m2
07:12 53.0 °F 50.7 °F 30.21 in Calm     92% 0.00 in 58 W/m2
07:18 53.3 °F 51.0 °F 30.21 in Calm     92% 0.00 in 72 W/m2
07:24 53.6 °F 51.3 °F 30.21 in Calm     92% 0.00 in 86 W/m2
07:30 53.9 °F 51.6 °F 30.21 in Calm     92% 0.00 in 90 W/m2
07:36 54.3 °F 52.0 °F 30.21 in Calm     92% 0.00 in 83 W/m2
07:42 54.8 °F 52.5 °F 30.21 in Calm     92% 0.00 in 90 W/m2
07:48 55.1 °F 52.5 °F 30.21 in Calm     91% 0.00 in 113 W/m2
07:54 55.6 °F 52.7 °F 30.21 in Calm     90% 0.00 in 127 W/m2
08:00 56.0 °F 52.8 °F 30.21 in Calm     89% 0.00 in 137 W/m2
08:06 56.7 °F 53.2 °F 30.20 in Calm   2.0 mph 88% 0.00 in 128 W/m2
08:12 57.1 °F 53.0 °F 30.20 in East 1.0 mph 1.0 mph 86% 0.00 in 121 W/m2
08:18 57.4 °F 52.9 °F 30.21 in ENE 1.0 mph 4.0 mph 85% 0.00 in 134 W/m2
08:24 57.7 °F 53.2 °F 30.21 in ENE 1.0 mph 3.0 mph 85% 0.00 in 135 W/m2
08:30 57.9 °F 53.1 °F 30.21 in ENE 1.0 mph 2.0 mph 84% 0.00 in 156 W/m2
08:36 58.3 °F 53.2 °F 30.21 in SE 1.0 mph 3.0 mph 83% 0.00 in 162 W/m2
08:42 58.4 °F 52.6 °F 30.21 in NE 1.0 mph 2.0 mph 81% 0.00 in 156 W/m2
08:48 58.6 °F 52.8 °F 30.21 in East 1.0 mph 2.0 mph 81% 0.00 in 144 W/m2
08:54 58.8 °F 53.0 °F 30.21 in South 1.0 mph 2.0 mph 81% 0.00 in 134 W/m2
09:00 58.7 °F 52.9 °F 30.21 in SE 1.0 mph 1.0 mph 81% 0.00 in 141 W/m2
09:06 58.9 °F 53.1 °F 30.21 in ESE 1.0 mph 5.0 mph 81% 0.00 in 176 W/m2
09:12 59.1 °F 53.3 °F 30.20 in SE 2.0 mph 4.0 mph 81% 0.00 in 207 W/m2
09:18 59.5 °F 53.7 °F 30.20 in SE 2.0 mph 4.0 mph 81% 0.00 in 239 W/m2
09:30 60.5 °F 54.0 °F 30.20 in ENE 2.0 mph 4.0 mph 79% 0.00 in 343 W/m2
09:36 61.1 °F 54.5 °F 30.20 in ENE 2.0 mph 4.0 mph 79% 0.00 in 501 W/m2
09:42 61.8 °F 54.9 °F 30.20 in SE 2.0 mph 2.0 mph 78% 0.00 in 591 W/m2
09:48 62.9 °F 54.9 °F 30.20 in SSE 2.0 mph 4.0 mph 75% 0.00 in 411 W/m2
09:54 63.3 °F 55.6 °F 30.19 in SE 2.0 mph 2.0 mph 76% 0.00 in 454 W/m2
10:00 63.3 °F 55.6 °F 30.19 in NE 3.0 mph 5.0 mph 76% 0.00 in 554 W/m2
10:06 63.5 °F 54.7 °F 30.18 in SSE 3.0 mph 5.0 mph 73% 0.00 in 339 W/m2
10:18 64.0 °F 55.5 °F 30.18 in NNE 2.0 mph 6.0 mph 74% 0.00 in 380 W/m2
10:24 64.3 °F 54.7 °F 30.18 in East 1.0 mph 3.0 mph 71% 0.00 in 397 W/m2
10:30 64.5 °F 55.7 °F 30.18 in ENE 1.0 mph 2.0 mph 73% 0.00 in 438 W/m2
10:36 65.3 °F 56.0 °F 30.18 in NE 1.0 mph 5.0 mph 72% 0.00 in 541 W/m2
10:42 65.0 °F 54.6 °F 30.18 in ENE 2.0 mph 4.0 mph 69% 0.00 in 288 W/m2
10:48 64.7 °F 55.1 °F 30.17 in East 2.0 mph 4.0 mph 71% 0.00 in 323 W/m2
10:56 65.8 °F 57.3 °F 30.18 in ESE 2.0 mph 7.0 mph 74% 0.00 in 715 W/m2
11:02 66.3 °F 57.0 °F 30.18 in SSE 3.0 mph 6.0 mph 72% 0.00 in 745 W/m2
11:08 67.0 °F 57.3 °F 30.18 in NNE 3.0 mph 6.0 mph 71% 0.00 in 749 W/m2
11:14 66.7 °F 56.6 °F 30.17 in NNE 3.0 mph 6.0 mph 70% 0.00 in 749 W/m2
11:20 65.6 °F 55.5 °F 30.17 in ENE 3.0 mph 3.0 mph 70% 0.00 in 299 W/m2
11:26 65.0 °F 55.0 °F 30.17 in ENE 3.0 mph 4.0 mph 70% 0.00 in 424 W/m2
11:32 65.8 °F 55.7 °F 30.17 in SE 3.0 mph 5.0 mph 70% 0.00 in 522 W/m2
11:38 66.5 °F 56.0 °F 30.17 in ENE 2.0 mph 5.0 mph 69% 0.00 in 543 W/m2
11:44 66.3 °F 55.8 °F 30.17 in NE 3.0 mph 7.0 mph 69% 0.00 in 555 W/m2
11:50 66.1 °F 56.0 °F 30.17 in East 3.0 mph 3.0 mph 70% 0.00 in 457 W/m2
11:56 66.2 °F 56.5 °F 30.16 in East 2.0 mph 6.0 mph 71% 0.00 in 357 W/m2
12:02 66.5 °F 56.8 °F 30.16 in NE 3.0 mph 5.0 mph 71% 0.00 in 318 W/m2
12:08 66.5 °F 54.8 °F 30.16 in SSW 3.0 mph 5.0 mph 66% 0.00 in 343 W/m2
12:14 66.7 °F 55.8 °F 30.15 in NE 3.0 mph 5.0 mph 68% 0.00 in 378 W/m2
12:20 67.2 °F 55.0 °F 30.15 in NW 4.0 mph 4.0 mph 65% 0.00 in 406 W/m2
12:26 67.5 °F 54.9 °F 30.15 in SE 3.0 mph 6.0 mph 64% 0.00 in 450 W/m2
12:32 68.1 °F 52.8 °F 30.15 in South 3.0 mph 3.0 mph 58% 0.00 in 594 W/m2
12:38 68.3 °F 51.5 °F 30.15 in SSE 3.0 mph 6.0 mph 55% 0.00 in 496 W/m2
12:44 68.2 °F 54.2 °F 30.15 in NNE 3.0 mph 5.0 mph 61% 0.00 in 432 W/m2
12:50 67.8 °F 54.7 °F 30.15 in ENE 3.0 mph 3.0 mph 63% 0.00 in 548 W/m2
12:56 68.3 °F 55.6 °F 30.15 in ESE 3.0 mph 5.0 mph 64% 0.00 in 490 W/m2
13:04 68.6 °F 53.2 °F 30.15 in SSE 2.0 mph 3.0 mph 58% 0.00 in 589 W/m2
13:10 69.5 °F 55.9 °F 30.15 in SE 3.0 mph 3.0 mph 62% 0.00 in 1037 W/m2
13:16 70.1 °F 56.9 °F 30.14 in South 3.0 mph 4.0 mph 63% 0.00 in 1020 W/m2
13:22 71.2 °F 54.7 °F 30.14 in SSE 3.0 mph 6.0 mph 56% 0.00 in 942 W/m2
13:28 70.1 °F 51.1 °F 30.14 in SE 4.0 mph 6.0 mph 51% 0.00 in 960 W/m2
13:34 70.0 °F 51.0 °F 30.14 in SE 5.0 mph 5.0 mph 51% 0.00 in 633 W/m2
13:40 69.8 °F 49.8 °F 30.14 in SSW 5.0 mph 5.0 mph 49% 0.00 in 1104 W/m2
13:46 69.6 °F 49.6 °F 30.14 in East 5.0 mph 7.0 mph 49% 0.00 in 705 W/m2
13:52 68.8 °F 48.3 °F 30.14 in ENE 4.0 mph 4.0 mph 48% 0.00 in 545 W/m2
13:58 69.0 °F 49.6 °F 30.14 in SSE 4.0 mph 5.0 mph 50% 0.00 in 527 W/m2
14:04 68.9 °F 49.5 °F 30.14 in SSE 4.0 mph 7.0 mph 50% 0.00 in 482 W/m2
14:10 69.2 °F 49.2 °F 30.13 in ESE 4.0 mph 4.0 mph 49% 0.00 in 659 W/m2
14:16 68.7 °F 47.6 °F 30.13 in NNE 3.0 mph 11.0 mph 47% 0.00 in 468 W/m2
14:22 68.6 °F 47.6 °F 30.13 in NE 4.0 mph 4.0 mph 47% 0.00 in 462 W/m2
14:28 68.5 °F 48.6 °F 30.13 in East 4.0 mph 5.0 mph 49% 0.00 in 431 W/m2
14:34 68.2 °F 48.3 °F 30.12 in SE 3.0 mph 4.0 mph 49% 0.00 in 413 W/m2
14:40 68.1 °F 48.2 °F 30.12 in SSE 4.0 mph 5.0 mph 49% 0.00 in 454 W/m2
14:46 68.7 °F 51.9 °F 30.12 in SE 3.0 mph 5.0 mph 55% 0.00 in 533 W/m2
14:52 68.7 °F 50.4 °F 30.11 in NE 3.0 mph 3.0 mph 52% 0.00 in 468 W/m2
14:58 68.5 °F 50.2 °F 30.12 in SSE 4.0 mph 5.0 mph 52% 0.00 in 520 W/m2
15:04 68.9 °F 49.5 °F 30.11 in ENE 3.0 mph 6.0 mph 50% 0.00 in 483 W/m2
15:12 69.2 °F 52.8 °F 30.10 in South 2.0 mph 3.0 mph 56% 0.00 in 406 W/m2
15:18 68.9 °F 50.5 °F 30.10 in SE 3.0 mph 5.0 mph 52% 0.00 in 415 W/m2
15:24 68.7 °F 50.9 °F 30.11 in SSE 4.0 mph 4.0 mph 53% 0.00 in 459 W/m2
15:30 68.7 °F 48.8 °F 30.10 in SSE 3.0 mph 6.0 mph 49% 0.00 in 466 W/m2
15:36 68.5 °F 48.6 °F 30.10 in SSE 4.0 mph 8.0 mph 49% 0.00 in 462 W/m2
15:42 68.6 °F 49.7 °F 30.10 in East 4.0 mph 5.0 mph 51% 0.00 in 380 W/m2
15:48 68.8 °F 50.5 °F 30.10 in NE 4.0 mph 5.0 mph 52% 0.00 in 415 W/m2
15:54 69.2 °F 49.2 °F 30.10 in SSE 4.0 mph 9.0 mph 49% 0.00 in 461 W/m2
16:00 69.0 °F 49.0 °F 30.09 in SSE 4.0 mph 4.0 mph 49% 0.00 in 656 W/m2
16:06 69.9 °F 50.4 °F 30.09 in SSE 4.0 mph 4.0 mph 50% 0.00 in 592 W/m2
16:12 69.7 °F 48.0 °F 30.09 in ENE 3.0 mph 5.0 mph 46% 0.00 in 575 W/m2
16:18 69.7 °F 49.7 °F 30.09 in ENE 3.0 mph 5.0 mph 49% 0.00 in 552 W/m2
16:24 69.3 °F 48.8 °F 30.09 in North 3.0 mph 5.0 mph 48% 0.00 in 534 W/m2
16:30 69.2 °F 49.2 °F 30.09 in East 4.0 mph 5.0 mph 49% 0.00 in 519 W/m2
16:36 69.5 °F 49.5 °F 30.09 in SE 4.0 mph 5.0 mph 49% 0.00 in 503 W/m2
16:42 69.7 °F 48.6 °F 30.09 in ENE 3.0 mph 3.0 mph 47% 0.00 in 490 W/m2
16:48 69.3 °F 49.3 °F 30.09 in ENE 3.0 mph 5.0 mph 49% 0.00 in 397 W/m2
16:54 68.8 °F 48.9 °F 30.09 in SE 3.0 mph 3.0 mph 49% 0.00 in 183 W/m2
17:00 68.0 °F 47.0 °F 30.09 in NNE 3.0 mph 3.0 mph 47% 0.00 in 151 W/m2
17:06 67.7 °F 48.4 °F 30.09 in ESE 3.0 mph 3.0 mph 50% 0.00 in 121 W/m2
17:12 67.4 °F 47.0 °F 30.09 in South 2.0 mph 2.0 mph 48% 0.00 in 116 W/m2
17:18 67.1 °F 47.8 °F 30.09 in SE 2.0 mph 4.0 mph 50% 0.00 in 369 W/m2
17:24 67.5 °F 47.1 °F 30.09 in SSE 2.0 mph 3.0 mph 48% 0.00 in 357 W/m2
17:30 67.7 °F 47.8 °F 30.08 in ESE 3.0 mph 7.0 mph 49% 0.00 in 288 W/m2
17:36 67.9 °F 48.0 °F 30.08 in SSW 4.0 mph 7.0 mph 49% 0.00 in 320 W/m2
17:42 67.9 °F 49.1 °F 30.08 in ENE 2.0 mph 3.0 mph 51% 0.00 in 299 W/m2
17:48 67.6 °F 48.8 °F 30.08 in East 1.0 mph 4.0 mph 51% 0.00 in 67 W/m2
17:54 67.0 °F 48.3 °F 30.08 in East 1.0 mph 4.0 mph 51% 0.00 in 67 W/m2
18:00 66.8 °F 48.1 °F 30.08 in SE 2.0 mph 3.0 mph 51% 0.00 in 67 W/m2
18:12 66.5 °F 48.3 °F 30.08 in East 2.0 mph 2.0 mph 52% 0.00 in 67 W/m2
18:18 66.2 °F 49.1 °F 30.08 in ENE 2.0 mph 3.0 mph 54% 0.00 in 54 W/m2
18:24 65.9 °F 47.8 °F 30.08 in NNE 2.0 mph 5.0 mph 52% 0.00 in 51 W/m2
18:30 65.7 °F 48.6 °F 30.08 in SSW 2.0 mph 2.0 mph 54% 0.00 in 47 W/m2
18:36 65.5 °F 48.9 °F 30.08 in SE 1.0 mph 3.0 mph 55% 0.00 in 44 W/m2
18:42 65.3 °F 48.7 °F 30.07 in ESE 1.0 mph 2.0 mph 55% 0.00 in 42 W/m2
18:48 65.0 °F 48.9 °F 30.07 in East 1.0 mph 2.0 mph 56% 0.00 in 37 W/m2
18:54 64.7 °F 49.1 °F 30.07 in ENE 1.0 mph 1.0 mph 57% 0.00 in 33 W/m2
19:00 64.5 °F 48.9 °F 30.07 in East 1.0 mph 1.0 mph 57% 0.00 in 30 W/m2
19:06 64.2 °F 49.1 °F 30.07 in ENE 1.0 mph 2.0 mph 58% 0.00 in 25 W/m2
19:12 63.7 °F 49.1 °F 30.07 in ENE 1.0 mph 5.0 mph 59% 0.00 in 21 W/m2
19:18 63.4 °F 48.8 °F 30.06 in ENE 1.0 mph 5.0 mph 59% 0.00 in 18 W/m2
19:24 63.0 °F 48.9 °F 30.06 in ENE 1.0 mph 4.0 mph 60% 0.00 in 12 W/m2
19:30 62.7 °F 49.1 °F 30.06 in SSE 1.0 mph 1.0 mph 61% 0.00 in 9 W/m2
19:36 62.2 °F 48.6 °F 30.06 in SE 1.0 mph 2.0 mph 61% 0.00 in 5 W/m2
19:42 62.0 °F 48.4 °F 30.06 in NE 1.0 mph 1.0 mph 61% 0.00 in 0 W/m2
19:48 61.7 °F 48.5 °F 30.06 in NE 1.0 mph 1.0 mph 62% 0.00 in 0 W/m2
19:54 61.3 °F 48.6 °F 30.06 in Calm   1.0 mph 63% 0.00 in 0 W/m2
20:00 60.8 °F 49.0 °F 30.06 in Calm     65% 0.00 in 0 W/m2
20:06 60.3 °F 49.3 °F 30.06 in Calm     67% 0.00 in 0 W/m2
20:12 59.8 °F 49.2 °F 30.06 in Calm     68% 0.00 in 0 W/m2
20:18 59.4 °F 49.2 °F 30.06 in Calm   1.0 mph 69% 0.00 in 0 W/m2
20:24 59.0 °F 48.8 °F 30.06 in Calm     69% 0.00 in 0 W/m2
20:30 58.7 °F 49.3 °F 30.06 in Calm     71% 0.00 in 0 W/m2
20:36 58.4 °F 49.4 °F 30.06 in Calm     72% 0.00 in 0 W/m2
20:42 58.0 °F 49.4 °F 30.06 in Calm     73% 0.00 in 0 W/m2
20:48 57.8 °F 49.6 °F 30.06 in Calm     74% 0.00 in 0 W/m2
20:54 57.7 °F 49.5 °F 30.06 in Calm     74% 0.00 in 0 W/m2
21:00 57.7 °F 49.5 °F 30.06 in Calm     74% 0.00 in 0 W/m2
21:06 57.6 °F 49.7 °F 30.06 in ENE 1.0 mph 2.0 mph 75% 0.00 in 0 W/m2
21:12 57.8 °F 49.9 °F 30.05 in ENE 1.0 mph 2.0 mph 75% 0.00 in 0 W/m2
21:18 57.7 °F 49.8 °F 30.05 in ENE 1.0 mph 2.0 mph 75% 0.00 in 0 W/m2
21:24 57.5 °F 50.0 °F 30.05 in Calm   1.0 mph 76% 0.00 in 0 W/m2
21:30 57.1 °F 50.0 °F 30.05 in Calm     77% 0.00 in 0 W/m2
21:36 56.8 °F 49.7 °F 30.05 in Calm     77% 0.00 in 0 W/m2
21:42 56.4 °F 49.6 °F 30.05 in Calm     78% 0.00 in 0 W/m2
21:48 56.0 °F 49.9 °F 30.05 in Calm     80% 0.00 in 0 W/m2
21:54 55.7 °F 49.6 °F 30.05 in Calm     80% 0.00 in 0 W/m2
22:00 55.6 °F 49.5 °F 30.05 in East 1.0 mph 1.0 mph 80% 0.00 in 0 W/m2
22:06 55.6 °F 49.5 °F 30.04 in Calm   1.0 mph 80% 0.00 in 0 W/m2
22:12 55.5 °F 49.4 °F 30.04 in Calm     80% 0.00 in 0 W/m2
22:18 55.2 °F 49.5 °F 30.04 in Calm     81% 0.00 in 0 W/m2
22:24 54.9 °F 49.5 °F 30.04 in Calm   1.0 mph 82% 0.00 in 0 W/m2
22:30 54.7 °F 49.3 °F 30.03 in Calm     82% 0.00 in 0 W/m2
22:36 54.5 °F 49.1 °F 30.03 in Calm     82% 0.00 in 0 W/m2
22:42 54.3 °F 49.2 °F 30.03 in Calm     83% 0.00 in 0 W/m2
22:48 54.0 °F 49.3 °F 30.03 in Calm     84% 0.00 in 0 W/m2
22:54 53.7 °F 49.0 °F 30.03 in Calm     84% 0.00 in 0 W/m2
23:00 53.5 °F 49.1 °F 30.03 in Calm     85% 0.00 in 0 W/m2
23:06 53.2 °F 49.1 °F 30.03 in Calm     86% 0.00 in 0 W/m2
23:12 53.0 °F 48.9 °F 30.03 in Calm     86% 0.00 in 0 W/m2
23:18 52.7 °F 48.9 °F 30.03 in Calm     87% 0.00 in 0 W/m2
23:24 52.5 °F 48.7 °F 30.03 in Calm     87% 0.00 in 0 W/m2
23:30 52.5 °F 49.0 °F 30.03 in Calm     88% 0.00 in 0 W/m2
23:36 52.7 °F 49.2 °F 30.03 in Calm   1.0 mph 88% 0.00 in 0 W/m2
23:42 53.0 °F 49.5 °F 30.03 in East 1.0 mph 1.0 mph 88% 0.00 in 0 W/m2
23:48 52.9 °F 49.1 °F 30.03 in Calm   1.0 mph 87% 0.00 in 0 W/m2
23:54 52.8 °F 49.0 °F 30.03 in Calm     87% 0.00 in 0 W/m2
Country Meadow, Clay, NY, USA
Compliments of Weather Underground - 2 mb